createdAt,value
2017-07-17T00:00:46.146Z,20.56
2017-07-17T00:03:12.551Z,21.01
2017-07-17T00:05:38.918Z,21.13
2017-07-17T00:08:05.284Z,21.16
2017-07-17T00:10:31.666Z,21.14
2017-07-17T00:12:58.013Z,21.20
2017-07-17T00:15:24.392Z,20.75
2017-07-17T00:17:50.751Z,20.90
2017-07-17T00:20:17.107Z,21.10
2017-07-17T00:22:45.122Z,21.16
2017-07-17T00:25:13.026Z,21.06
2017-07-17T00:27:41.006Z,21.15
2017-07-17T00:30:09.122Z,21.07
2017-07-17T00:32:35.500Z,20.28
2017-07-17T00:35:01.865Z,20.52
2017-07-17T00:37:28.215Z,20.83
2017-07-17T00:39:54.567Z,21.07
2017-07-17T00:42:20.940Z,21.02
2017-07-17T00:44:47.345Z,20.79
2017-07-17T00:47:13.987Z,21.09
2017-07-17T00:49:40.434Z,21.02
2017-07-17T00:52:06.874Z,20.95
2017-07-17T00:54:33.204Z,20.46
2017-07-17T00:57:05.566Z,20.39
2017-07-17T00:59:31.902Z,20.11
2017-07-17T01:01:58.738Z,20.08
2017-07-17T01:04:25.463Z,20.30
2017-07-17T01:06:51.895Z,20.77
2017-07-17T01:09:18.264Z,20.81
2017-07-17T01:11:44.771Z,20.83
2017-07-17T01:14:11.199Z,20.94
2017-07-17T01:16:37.558Z,20.92
2017-07-17T01:19:03.984Z,20.94
2017-07-17T01:21:36.463Z,20.61
2017-07-17T01:24:02.990Z,20.84
2017-07-17T01:26:29.918Z,20.95
2017-07-17T01:28:56.846Z,20.94
2017-07-17T01:31:23.280Z,20.89
2017-07-17T01:33:49.751Z,20.66
2017-07-17T01:36:16.615Z,20.17
2017-07-17T01:38:43.306Z,20.11
2017-07-17T01:41:09.764Z,20.34
2017-07-17T01:43:36.572Z,20.70
2017-07-17T01:46:03.302Z,20.84
2017-07-17T01:48:29.838Z,20.88
2017-07-17T01:50:57.262Z,20.82
2017-07-17T01:53:23.668Z,20.86
2017-07-17T01:55:50.123Z,20.71
2017-07-17T01:58:22.034Z,20.78
2017-07-17T02:00:48.475Z,20.62
2017-07-17T02:03:14.895Z,20.07
2017-07-17T02:05:46.693Z,20.04
2017-07-17T02:08:13.154Z,20.25
2017-07-17T02:10:42.998Z,20.49
2017-07-17T02:13:14.714Z,20.39
2017-07-17T02:15:41.357Z,20.28
2017-07-17T02:18:07.869Z,20.53
2017-07-17T02:20:34.553Z,20.75
2017-07-17T02:23:01.120Z,20.80
2017-07-17T02:25:33.012Z,20.79
2017-07-17T02:28:00.336Z,20.75
2017-07-17T02:30:26.802Z,20.58
2017-07-17T02:32:53.312Z,20.35
2017-07-17T02:35:20.068Z,20.17
2017-07-17T02:37:46.485Z,19.74
2017-07-17T02:40:12.935Z,19.87
2017-07-17T02:42:39.413Z,19.69
2017-07-17T02:45:05.874Z,19.83
2017-07-17T02:47:32.901Z,20.22
2017-07-17T02:50:04.460Z,20.21
2017-07-17T02:52:30.811Z,20.67
2017-07-17T02:54:57.581Z,20.70
2017-07-17T02:57:24.034Z,20.59
2017-07-17T02:59:50.465Z,20.68
2017-07-17T03:02:16.907Z,20.73
2017-07-17T03:04:50.418Z,20.67
2017-07-17T03:07:16.881Z,20.71
2017-07-17T03:09:49.991Z,20.74
2017-07-17T03:12:16.457Z,20.70
2017-07-17T03:14:42.895Z,20.73
2017-07-17T03:17:09.354Z,20.72
2017-07-17T03:19:35.790Z,20.72
2017-07-17T03:22:07.403Z,20.50
2017-07-17T03:24:33.857Z,20.20
2017-07-17T03:27:05.720Z,20.30
2017-07-17T03:29:32.128Z,20.26
2017-07-17T03:31:58.573Z,20.09
2017-07-17T03:34:25.485Z,20.04
2017-07-17T03:36:52.013Z,19.88
2017-07-17T03:39:23.480Z,19.78
2017-07-17T03:41:50.546Z,19.91
2017-07-17T03:44:16.979Z,19.88
2017-07-17T03:46:43.967Z,19.70
2017-07-17T03:49:10.829Z,19.98
2017-07-17T03:51:37.590Z,19.88
2017-07-17T03:54:03.950Z,19.76
2017-07-17T03:56:35.567Z,19.74
2017-07-17T03:59:02.172Z,19.74
2017-07-17T04:01:28.637Z,19.65
2017-07-17T04:03:55.115Z,19.71
2017-07-17T04:06:21.550Z,19.74
2017-07-17T04:08:48.018Z,19.64
2017-07-17T04:11:14.463Z,19.75
2017-07-17T04:13:40.932Z,19.93
2017-07-17T04:16:07.421Z,19.86
2017-07-17T04:18:34.062Z,19.58
2017-07-17T04:21:00.486Z,19.62
2017-07-17T04:23:26.941Z,19.48
2017-07-17T04:25:53.309Z,19.91
2017-07-17T04:28:19.750Z,19.77
2017-07-17T04:30:51.383Z,19.65
2017-07-17T04:33:23.070Z,19.59
2017-07-17T04:35:49.901Z,19.61
2017-07-17T04:38:16.421Z,19.37
2017-07-17T04:40:48.567Z,19.66
2017-07-17T04:43:16.038Z,19.57
2017-07-17T04:45:47.882Z,19.60
2017-07-17T04:48:14.411Z,19.44
2017-07-17T04:50:41.146Z,19.47
2017-07-17T04:53:07.826Z,19.65
2017-07-17T04:55:34.921Z,19.34
2017-07-17T04:58:01.890Z,19.60
2017-07-17T05:00:28.319Z,19.69
2017-07-17T05:02:55.089Z,19.55
2017-07-17T05:05:26.937Z,19.57
2017-07-17T05:07:53.800Z,19.45
2017-07-17T05:10:20.254Z,19.48
2017-07-17T05:12:46.608Z,19.40
2017-07-17T05:15:18.156Z,19.50
2017-07-17T05:17:49.815Z,19.05
2017-07-17T05:20:16.241Z,19.15
2017-07-17T05:22:48.002Z,19.13
2017-07-17T05:25:14.530Z,19.46
2017-07-17T05:27:40.897Z,19.11
2017-07-17T05:30:11.348Z,19.30
2017-07-17T05:32:37.746Z,19.35
2017-07-17T05:35:09.669Z,19.08
2017-07-17T05:37:36.073Z,19.26
2017-07-17T05:40:03.734Z,19.45
2017-07-17T05:42:30.289Z,19.32
2017-07-17T05:45:01.731Z,19.25
2017-07-17T05:47:28.100Z,19.18
2017-07-17T05:49:54.768Z,19.41
2017-07-17T05:52:22.322Z,19.43
2017-07-17T05:54:54.142Z,19.51
2017-07-17T05:57:20.695Z,19.30
2017-07-17T05:59:47.141Z,19.31
2017-07-17T06:02:13.567Z,19.21
2017-07-17T06:04:39.919Z,19.04
2017-07-17T06:07:06.265Z,19.06
2017-07-17T06:09:32.785Z,19.06
2017-07-17T06:11:59.297Z,19.08
2017-07-17T06:14:26.289Z,18.79
2017-07-17T06:16:58.308Z,18.98
2017-07-17T06:19:27.934Z,19.17
2017-07-17T06:21:54.371Z,19.39
2017-07-17T06:24:26.460Z,19.04
2017-07-17T06:26:52.910Z,18.81
2017-07-17T06:29:19.749Z,18.83
2017-07-17T06:31:51.631Z,19.05
2017-07-17T06:34:20.275Z,19.13
2017-07-17T06:36:46.847Z,19.17
2017-07-17T06:39:13.593Z,18.94
2017-07-17T06:41:45.230Z,19.05
2017-07-17T06:44:12.916Z,19.27
2017-07-17T06:46:39.403Z,19.46
2017-07-17T06:49:05.876Z,19.34
2017-07-17T06:51:32.488Z,18.97
2017-07-17T06:53:59.271Z,19.27
2017-07-17T06:56:25.952Z,19.44
2017-07-17T06:58:52.465Z,19.43
2017-07-17T07:01:24.438Z,18.99
2017-07-17T07:03:51.130Z,19.20
2017-07-17T07:06:17.795Z,19.01
2017-07-17T07:08:44.299Z,18.67
2017-07-17T07:11:10.658Z,19.12
2017-07-17T07:13:37.503Z,18.93
2017-07-17T07:16:04.923Z,18.91
2017-07-17T07:18:31.453Z,18.68
2017-07-17T07:20:58.809Z,18.97
2017-07-17T07:23:25.234Z,18.89
2017-07-17T07:25:51.569Z,18.71
2017-07-17T07:28:19.012Z,18.86
2017-07-17T07:30:45.540Z,18.78
2017-07-17T07:33:11.898Z,19.16
2017-07-17T07:35:38.434Z,19.30
2017-07-17T07:38:05.142Z,18.81
2017-07-17T07:40:34.938Z,19.01
2017-07-17T07:43:01.325Z,18.96
2017-07-17T07:45:27.845Z,19.00
2017-07-17T07:47:54.302Z,18.99
2017-07-17T07:50:20.669Z,19.32
2017-07-17T07:52:47.422Z,19.49
2017-07-17T07:55:14.267Z,19.19
2017-07-17T07:57:45.881Z,19.09
2017-07-17T08:00:12.232Z,19.31
2017-07-17T08:02:38.736Z,19.36
2017-07-17T08:05:05.209Z,19.48
2017-07-17T08:07:36.781Z,19.49
2017-07-17T08:10:03.383Z,19.43
2017-07-17T08:12:29.747Z,19.92
2017-07-17T08:14:56.267Z,19.78
2017-07-17T08:17:22.693Z,19.94
2017-07-17T08:19:49.159Z,19.88
2017-07-17T08:22:15.579Z,19.73
2017-07-17T08:24:42.719Z,19.58
2017-07-17T08:27:09.282Z,19.61
2017-07-17T08:29:35.865Z,19.73
2017-07-17T08:32:07.450Z,19.60
2017-07-17T08:34:33.883Z,19.51
2017-07-17T08:37:00.543Z,19.62
2017-07-17T08:39:27.062Z,19.58
2017-07-17T08:41:54.024Z,19.36
2017-07-17T08:44:20.726Z,19.11
2017-07-17T08:46:50.505Z,19.34
2017-07-17T08:49:17.026Z,19.71
2017-07-17T08:51:43.383Z,19.53
2017-07-17T08:54:10.073Z,19.59
2017-07-17T08:56:37.076Z,19.63
2017-07-17T08:59:03.735Z,19.67
2017-07-17T09:01:30.167Z,19.87
2017-07-17T09:03:56.676Z,19.76
2017-07-17T09:06:24.584Z,19.77
2017-07-17T09:09:06.721Z,19.90
2017-07-17T09:11:33.585Z,19.51
2017-07-17T09:14:00.034Z,19.53
2017-07-17T09:16:26.723Z,19.73
2017-07-17T09:18:53.663Z,20.03
2017-07-17T09:21:20.369Z,20.15
2017-07-17T09:23:46.741Z,20.26
2017-07-17T09:26:13.135Z,20.17
2017-07-17T09:28:43.412Z,20.10
2017-07-17T09:31:15.141Z,20.32
2017-07-17T09:33:42.825Z,20.25
2017-07-17T09:36:09.272Z,20.15
2017-07-17T09:38:38.670Z,19.97
2017-07-17T09:41:10.937Z,20.47
2017-07-17T09:43:40.667Z,20.25
2017-07-17T09:46:07.190Z,20.43
2017-07-17T09:48:39.143Z,20.51
2017-07-17T09:51:05.498Z,20.65
2017-07-17T09:53:34.931Z,20.92
2017-07-17T09:56:01.360Z,20.78
2017-07-17T09:58:30.912Z,20.90
2017-07-17T10:01:00.642Z,20.91
2017-07-17T10:03:27.110Z,20.90
2017-07-17T10:05:58.982Z,21.25
2017-07-17T10:08:25.377Z,21.42
2017-07-17T10:10:57.171Z,21.38
2017-07-17T10:13:23.539Z,21.56
2017-07-17T10:15:55.326Z,21.75
2017-07-17T10:18:24.723Z,21.61
2017-07-17T10:20:56.122Z,21.68
2017-07-17T10:23:22.620Z,21.85
2017-07-17T10:25:49.134Z,22.26
2017-07-17T10:28:20.802Z,22.15
2017-07-17T10:30:52.637Z,22.32
2017-07-17T10:33:19.121Z,22.66
2017-07-17T10:35:45.494Z,22.91
2017-07-17T10:38:12.073Z,22.90
2017-07-17T10:40:38.594Z,22.94
2017-07-17T10:43:05.098Z,23.01
2017-07-17T10:45:31.442Z,22.28
2017-07-17T10:47:58.169Z,22.83
2017-07-17T10:50:25.037Z,23.13
2017-07-17T10:52:51.666Z,23.44
2017-07-17T10:55:18.196Z,23.66
2017-07-17T10:57:44.708Z,23.80
2017-07-17T11:00:11.212Z,23.59
2017-07-17T11:02:37.754Z,23.64
2017-07-17T11:05:12.163Z,23.56
2017-07-17T11:07:43.929Z,23.54
2017-07-17T11:10:15.612Z,23.76
2017-07-17T11:12:42.496Z,24.01
2017-07-17T11:15:09.083Z,24.18
2017-07-17T11:17:35.419Z,24.08
2017-07-17T11:20:02.034Z,23.45
2017-07-17T11:22:31.404Z,23.74
2017-07-17T11:25:00.836Z,24.42
2017-07-17T11:27:27.298Z,23.86
2017-07-17T11:29:53.730Z,24.07
2017-07-17T11:32:25.560Z,24.34
2017-07-17T11:34:52.092Z,24.34
2017-07-17T11:37:18.517Z,25.08
2017-07-17T11:39:45.553Z,24.77
2017-07-17T11:42:12.366Z,24.15
2017-07-17T11:44:44.548Z,24.55
2017-07-17T11:57:18.748Z,25.31
2017-07-17T11:59:50.525Z,24.72
2017-07-17T12:02:22.359Z,25.42
2017-07-17T12:04:48.724Z,25.20
2017-07-17T12:07:15.117Z,25.28
2017-07-17T12:09:42.005Z,25.77
2017-07-17T12:12:08.411Z,25.75
2017-07-17T12:14:35.285Z,26.60
2017-07-17T12:17:06.957Z,26.52
2017-07-17T12:19:33.488Z,26.82
2017-07-17T12:22:05.386Z,27.41
2017-07-17T12:24:32.072Z,26.80
2017-07-17T12:27:03.935Z,25.87
2017-07-17T12:29:30.274Z,25.48
2017-07-17T12:32:01.934Z,26.42
2017-07-17T12:34:28.390Z,26.29
2017-07-17T12:37:00.211Z,25.68
2017-07-17T12:39:26.665Z,26.01
2017-07-17T12:41:53.043Z,26.11
2017-07-17T12:44:19.661Z,25.88
2017-07-17T12:46:46.468Z,26.39
2017-07-17T12:49:13.086Z,26.15
2017-07-17T12:51:39.698Z,27.02
2017-07-17T12:54:06.131Z,26.60
2017-07-17T12:56:37.845Z,26.32
2017-07-17T12:59:04.360Z,26.84
2017-07-17T13:01:30.830Z,26.03
2017-07-17T13:04:00.245Z,26.57
2017-07-17T13:06:29.655Z,26.58
2017-07-17T13:09:01.706Z,26.67
2017-07-17T13:11:28.181Z,27.11
2017-07-17T13:13:54.909Z,26.08
2017-07-17T13:16:24.808Z,26.60
2017-07-17T13:18:51.468Z,25.44
2017-07-17T13:21:18.224Z,25.59
2017-07-17T13:23:49.844Z,25.55
2017-07-17T13:26:16.208Z,26.64
2017-07-17T13:28:42.652Z,26.87
2017-07-17T13:31:09.042Z,26.91
2017-07-17T13:33:35.438Z,27.29
2017-07-17T13:36:01.827Z,26.83
2017-07-17T13:38:28.211Z,26.86
2017-07-17T13:40:54.562Z,26.91
2017-07-17T13:43:20.909Z,27.25
2017-07-17T13:45:47.277Z,26.58
2017-07-17T13:48:13.671Z,27.93
2017-07-17T13:50:40.065Z,28.15
2017-07-17T13:53:06.421Z,28.28
2017-07-17T13:55:32.792Z,28.14
2017-07-17T13:57:59.178Z,27.95
2017-07-17T14:00:25.583Z,28.08
2017-07-17T14:02:52.017Z,27.03
2017-07-17T14:05:18.373Z,26.95
2017-07-17T14:07:44.748Z,28.84
2017-07-17T14:10:11.124Z,28.34
2017-07-17T14:12:37.496Z,28.67
2017-07-17T14:15:03.869Z,28.12
2017-07-17T14:17:30.216Z,28.27
2017-07-17T14:19:56.600Z,27.91
2017-07-17T14:22:22.994Z,29.14
2017-07-17T14:24:49.452Z,29.01
2017-07-17T14:27:15.871Z,28.60
2017-07-17T14:29:42.288Z,28.49
2017-07-17T14:32:24.377Z,29.00
2017-07-17T14:34:51.356Z,28.94
2017-07-17T14:37:17.709Z,29.32
2017-07-17T14:39:44.105Z,28.10
2017-07-17T14:42:10.472Z,29.30
2017-07-17T14:44:36.871Z,29.69
2017-07-17T14:47:03.235Z,29.50
2017-07-17T14:49:29.619Z,28.55
2017-07-17T14:51:55.977Z,29.26
2017-07-17T14:54:22.389Z,28.80
2017-07-17T14:56:48.810Z,28.83
2017-07-17T14:59:15.198Z,29.08
2017-07-17T15:01:41.537Z,28.62
2017-07-17T15:04:07.914Z,28.73
2017-07-17T15:06:34.278Z,28.17
2017-07-17T15:09:00.633Z,28.87
2017-07-17T15:11:27.036Z,28.73
2017-07-17T15:13:53.832Z,27.76
2017-07-17T15:16:20.253Z,28.79
2017-07-17T15:18:46.666Z,28.59
2017-07-17T15:21:13.088Z,29.02
2017-07-17T15:23:39.486Z,28.19
2017-07-17T15:26:06.847Z,28.31
2017-07-17T15:28:33.279Z,28.47
2017-07-17T15:30:59.651Z,28.27
2017-07-17T15:33:26.081Z,28.71
2017-07-17T15:35:52.452Z,28.90
2017-07-17T15:38:18.821Z,28.85
2017-07-17T15:40:45.219Z,28.79
2017-07-17T15:43:11.919Z,28.57
2017-07-17T15:45:38.302Z,28.68
2017-07-17T15:48:04.698Z,29.18
2017-07-17T15:50:31.079Z,29.07
2017-07-17T15:52:57.645Z,28.38
2017-07-17T15:55:24.051Z,28.59
2017-07-17T15:57:50.415Z,28.61
2017-07-17T16:00:16.788Z,28.03
2017-07-17T16:02:43.160Z,28.11
2017-07-17T16:05:09.802Z,28.90
2017-07-17T16:07:36.522Z,28.93
2017-07-17T16:10:02.971Z,28.43
2017-07-17T16:12:29.365Z,28.62
2017-07-17T16:14:55.749Z,28.30
2017-07-17T16:17:22.130Z,28.52
2017-07-17T16:19:48.519Z,28.01
2017-07-17T16:22:14.890Z,28.54
2017-07-17T16:24:41.281Z,28.40
2017-07-17T16:27:07.676Z,28.69
2017-07-17T16:29:34.026Z,28.60
2017-07-17T16:32:00.438Z,28.58
2017-07-17T16:34:26.848Z,28.39
2017-07-17T16:36:53.243Z,28.57
2017-07-17T16:39:19.612Z,27.78
2017-07-17T16:41:46.001Z,28.02
2017-07-17T16:44:12.644Z,28.00
2017-07-17T16:46:39.039Z,27.95
2017-07-17T16:49:05.408Z,27.08
2017-07-17T16:51:31.789Z,28.41
2017-07-17T16:53:58.187Z,28.49
2017-07-17T16:56:24.537Z,28.64
2017-07-17T16:58:50.905Z,28.13
2017-07-17T17:01:17.292Z,28.26
2017-07-17T17:03:43.643Z,28.20
2017-07-17T17:06:10.025Z,27.24
2017-07-17T17:08:36.415Z,26.94
2017-07-17T17:11:02.786Z,27.11
2017-07-17T17:13:29.153Z,26.80
2017-07-17T17:15:55.541Z,27.60
2017-07-17T17:18:21.944Z,27.75
2017-07-17T17:20:48.340Z,27.63
2017-07-17T17:23:14.715Z,27.02
2017-07-17T17:25:41.063Z,26.67
2017-07-17T17:28:07.471Z,27.29
2017-07-17T17:30:33.847Z,27.30
2017-07-17T17:33:00.364Z,27.36
2017-07-17T17:35:26.763Z,27.19
2017-07-17T17:37:53.152Z,27.26
2017-07-17T17:40:19.544Z,27.28
2017-07-17T17:42:57.743Z,26.54
2017-07-17T17:45:34.806Z,26.41
2017-07-17T17:48:13.032Z,26.47
2017-07-17T17:50:51.526Z,26.13
2017-07-17T17:53:28.516Z,25.77
2017-07-17T17:55:54.899Z,25.96
2017-07-17T17:58:21.307Z,26.13
2017-07-17T18:00:58.419Z,26.03
2017-07-17T18:03:34.605Z,25.38
2017-07-17T18:06:11.354Z,25.53
2017-07-17T18:08:48.383Z,25.31
2017-07-17T18:11:26.060Z,25.12
2017-07-17T18:14:00.544Z,25.16
2017-07-17T18:16:38.475Z,25.23
2017-07-17T18:19:19.418Z,24.83
2017-07-17T18:21:45.831Z,24.57
2017-07-17T18:24:12.238Z,24.85
2017-07-17T18:26:38.647Z,24.55
2017-07-17T18:29:05.932Z,24.58
2017-07-17T18:31:32.327Z,24.44
2017-07-17T18:33:58.709Z,24.67
2017-07-17T18:36:25.108Z,24.49
2017-07-17T18:38:51.494Z,24.24
2017-07-17T18:41:17.923Z,24.24
2017-07-17T18:43:44.262Z,23.87
2017-07-17T18:46:10.624Z,23.92
2017-07-17T18:48:37.013Z,23.52
2017-07-17T18:51:03.405Z,23.40
2017-07-17T18:53:29.833Z,23.47
2017-07-17T18:55:56.196Z,23.20
2017-07-17T18:58:22.593Z,23.30
2017-07-17T19:00:49.048Z,22.92
2017-07-17T19:03:15.426Z,22.67
2017-07-17T19:05:41.812Z,23.16
2017-07-17T19:08:08.174Z,22.56
2017-07-17T19:10:34.613Z,22.56
2017-07-17T19:13:01.059Z,22.12
2017-07-17T19:15:27.701Z,22.15
2017-07-17T19:17:54.044Z,21.95
2017-07-17T19:20:20.416Z,21.89
2017-07-17T19:22:47.069Z,21.57
2017-07-17T19:25:13.522Z,21.49
2017-07-17T19:27:40.198Z,21.40
2017-07-17T19:30:24.918Z,21.32
2017-07-17T19:33:06.110Z,21.57
2017-07-17T19:35:32.529Z,21.50
2017-07-17T19:38:15.440Z,20.99
2017-07-17T19:40:55.957Z,20.79
2017-07-17T19:43:39.582Z,20.78
2017-07-17T19:46:19.230Z,20.97
2017-07-17T19:49:03.423Z,21.38
2017-07-17T19:51:46.759Z,20.60
2017-07-17T19:54:30.455Z,20.84
2017-07-17T19:57:12.607Z,20.66
2017-07-17T19:59:38.987Z,21.16
2017-07-17T20:02:05.578Z,22.49
2017-07-17T20:04:32.477Z,22.20
2017-07-17T20:06:58.865Z,21.98
2017-07-17T20:09:25.364Z,21.83
2017-07-17T20:11:51.753Z,22.33
2017-07-17T20:14:18.113Z,22.59
2017-07-17T20:16:44.489Z,22.27
2017-07-17T20:19:11.352Z,20.98
2017-07-17T20:21:37.756Z,20.44
2017-07-17T20:24:04.143Z,21.57
2017-07-17T20:26:30.563Z,22.29
2017-07-17T20:28:57.136Z,22.40
2017-07-17T20:31:24.202Z,22.21
2017-07-17T20:33:50.696Z,22.27
2017-07-17T20:36:17.182Z,22.05
2017-07-17T20:38:43.581Z,21.95
2017-07-17T20:41:09.953Z,21.00
2017-07-17T20:43:36.326Z,20.25
2017-07-17T20:46:02.667Z,20.52
2017-07-17T20:48:29.305Z,21.71
2017-07-17T20:50:55.672Z,21.71
2017-07-17T20:53:22.049Z,19.73
2017-07-17T20:55:48.495Z,18.65
2017-07-17T20:58:15.106Z,18.97
2017-07-17T21:00:41.522Z,20.58
2017-07-17T21:03:07.954Z,20.68
2017-07-17T21:05:34.359Z,19.40
2017-07-17T21:08:00.726Z,19.33
2017-07-17T21:10:28.213Z,19.12
2017-07-17T21:12:54.660Z,20.63
2017-07-17T21:15:21.040Z,19.43
2017-07-17T21:17:47.545Z,19.11
2017-07-17T21:20:13.930Z,20.83
2017-07-17T21:22:40.322Z,20.31
2017-07-17T21:25:23.303Z,19.58
2017-07-17T21:28:05.574Z,19.91
2017-07-17T21:30:46.134Z,18.47
2017-07-17T21:33:25.099Z,18.86
2017-07-17T21:36:07.061Z,19.90
2017-07-17T21:38:33.414Z,20.86
2017-07-17T21:40:59.817Z,20.98
2017-07-17T21:43:26.195Z,20.42
2017-07-17T21:45:52.592Z,19.40
2017-07-17T21:48:18.944Z,18.22
2017-07-17T21:50:45.568Z,18.53
2017-07-17T21:53:11.976Z,19.91
2017-07-17T21:55:38.348Z,19.59
2017-07-17T21:58:04.762Z,19.63
2017-07-17T22:00:31.164Z,19.75
2017-07-17T22:02:57.533Z,18.80
2017-07-17T22:05:23.923Z,18.24
2017-07-17T22:07:50.322Z,18.06
2017-07-17T22:10:16.744Z,18.83
2017-07-17T22:12:43.139Z,19.99
2017-07-17T22:15:09.546Z,19.23
2017-07-17T22:17:36.046Z,19.05
2017-07-17T22:20:02.458Z,19.74
2017-07-17T22:22:28.901Z,19.55
2017-07-17T22:24:55.282Z,19.14
2017-07-17T22:27:21.781Z,18.75
2017-07-17T22:29:48.178Z,19.05
2017-07-17T22:32:14.546Z,18.95
2017-07-17T22:34:41.400Z,18.76
2017-07-17T22:37:07.777Z,19.49
2017-07-17T22:39:34.177Z,19.92
2017-07-17T22:42:00.557Z,19.57
2017-07-17T22:44:26.930Z,17.54
2017-07-17T22:46:53.298Z,16.65
2017-07-17T22:49:19.685Z,16.74
2017-07-17T22:51:46.070Z,16.96
2017-07-17T22:54:13.864Z,17.80
2017-07-17T22:56:40.267Z,17.40
2017-07-17T22:59:07.110Z,17.91
2017-07-17T23:01:34.583Z,18.75
2017-07-17T23:04:01.062Z,19.42
2017-07-17T23:06:27.509Z,19.68
2017-07-17T23:08:53.889Z,19.71
2017-07-17T23:11:20.261Z,18.66
2017-07-17T23:13:46.626Z,17.42
2017-07-17T23:16:13.040Z,16.80
2017-07-17T23:18:39.418Z,16.81
2017-07-17T23:21:05.853Z,16.80
2017-07-17T23:23:32.221Z,16.53
2017-07-17T23:25:58.613Z,16.43
2017-07-17T23:28:24.995Z,16.92
2017-07-17T23:30:51.414Z,18.20
2017-07-17T23:33:17.827Z,18.96
2017-07-17T23:35:44.462Z,18.53
2017-07-17T23:38:10.843Z,18.57
2017-07-17T23:40:37.229Z,18.73
2017-07-17T23:43:03.601Z,18.42
2017-07-17T23:45:29.966Z,18.21
2017-07-17T23:47:56.330Z,18.06
2017-07-17T23:50:22.690Z,18.78
2017-07-17T23:52:49.079Z,18.54
2017-07-17T23:55:16.319Z,18.55
2017-07-17T23:57:42.752Z,17.96
